Crystal Beach, Vermont
Current Conditions -  °F | °C
As of 10:35 PM on Friday 19 Dec 2014 (Local Time) from KRUT Reporting Station
Clear Clear  
Wind Chill: 14°   Ceiling: Unl
Heat Index: 21°   Visibility: 10mi
Dew Point: 16°   Wind: 6mph
Humidity: 80%   Direction: 310°NW
Pressure: 30.17"   Gusts: NA
Location:  43.6297°N, 73.1988°W
Report Text: KRUT 200335Z 31005KT 10SM CLR M06/M09 A3017 RMK AO1
Loading
Personal Weather Stations






























Interactive Weather Map New forecast layout! Learn more

10-Day Weather Forecast

Advertisements
Track Severe Weather on mobile